Time;durP1;ratioP1;P1;durP2;ratioP2;P2;SDS_P1;SDS_P2;PMS_P1;PMS_P2;Temp;Humidity;BMP_temperature;BMP_pressure;BME280_temperature;BME280_humidity;BME280_pressure;Samples;Min_cycle;Max_cycle;Signal;HPM_P1;HPM_P2
2021/12/12 00:00:04;;;;;;;;;;;1.30;99.90;;;;;;5052483;28;20333;-75
2021/12/12 00:02:45;;;;;;;;;;;1.30;99.90;;;;;;5053977;28;19919;-75
2021/12/12 00:05:11;;;;;;;;;;;1.30;99.90;;;;;;5048095;28;20283;-76
2021/12/12 00:07:37;;;;;;;;;;;1.30;99.90;;;;;;5053884;28;20122;-75
2021/12/12 00:10:07;;;;;;;;;;;1.30;99.90;;;;;;5054117;28;19912;-75
2021/12/12 00:12:36;;;;;;;;;;;1.30;99.90;;;;;;5053804;28;19909;-75
2021/12/12 00:15:02;;;;;;;;;;;1.40;99.90;;;;;;5052864;28;19913;-75
2021/12/12 00:17:28;;;;;;;;;;;1.40;99.90;;;;;;5055024;28;20004;-75
2021/12/12 00:19:54;;;;;;;;;;;1.40;99.90;;;;;;5054958;28;19956;-75
2021/12/12 00:22:22;;;;;;;;;;;1.40;99.90;;;;;;5054551;28;19920;-76
2021/12/12 00:24:49;;;;;;;;;;;1.40;99.90;;;;;;5053208;28;19912;-75
2021/12/12 00:27:14;;;;;;;;;;;1.40;99.90;;;;;;5053113;28;19916;-76
2021/12/12 00:29:41;;;;;;;;;;;1.40;99.90;;;;;;5052586;28;19916;-76
2021/12/12 00:32:09;;;;;;;;;;;1.40;99.90;;;;;;5045803;28;20354;-76
2021/12/12 00:34:37;;;;;;;;;;;1.40;99.90;;;;;;5049227;28;19909;-76
2021/12/12 00:37:03;;;;;;;;;;;1.40;99.90;;;;;;5053043;28;20373;-76
2021/12/12 00:39:31;;;;;;;;;;;1.40;99.90;;;;;;5053161;28;20018;-76
2021/12/12 00:42:00;;;;;;;;;;;1.40;99.90;;;;;;5046428;28;19920;-76
2021/12/12 00:44:26;;;;;;;;;;;1.40;99.90;;;;;;5052667;28;19909;-77
2021/12/12 00:46:53;;;;;;;;;;;1.40;99.90;;;;;;5052453;28;20258;-77
2021/12/12 00:49:19;;;;;;;;;;;1.40;99.90;;;;;;5045477;28;19909;-77
2021/12/12 00:51:45;;;;;;;;;;;1.40;99.90;;;;;;5052288;28;20011;-77
2021/12/12 00:54:12;;;;;;;;;;;1.40;99.90;;;;;;5052689;28;20016;-77
2021/12/12 00:56:38;;;;;;;;;;;1.40;99.90;;;;;;5052717;28;20407;-77
2021/12/12 00:59:04;;;;;;;;;;;1.40;99.90;;;;;;5041262;28;20032;-77
2021/12/12 01:01:33;;;;;;;;;;;1.40;99.90;;;;;;5052077;28;19920;-77
2021/12/12 01:04:01;;;;;;;;;;;1.40;99.90;;;;;;5052289;28;19913;-76
2021/12/12 01:06:27;;;;;;;;;;;1.40;99.90;;;;;;5051533;28;19909;-77
2021/12/12 01:08:53;;;;;;;;;;;1.40;99.90;;;;;;5049264;28;20411;-77
2021/12/12 01:11:22;;;;;;;;;;;1.40;99.90;;;;;;5049149;28;19917;-77
2021/12/12 01:13:48;;;;;;;;;;;1.40;99.90;;;;;;5049370;28;19917;-77
2021/12/12 01:16:22;;;;;;;;;;;1.40;99.90;;;;;;5049616;28;19987;-77
2021/12/12 01:18:51;;;;;;;;;;;1.40;99.90;;;;;;5043668;28;19916;-77
2021/12/12 01:21:20;;;;;;;;;;;1.40;99.90;;;;;;5049927;28;19971;-76
2021/12/12 01:24:12;;;;;;;;;;;1.40;99.90;;;;;;5049132;28;19909;-77
2021/12/12 01:26:38;;;;;;;;;;;1.40;99.90;;;;;;5049922;28;20324;-77
2021/12/12 01:29:04;;;;;;;;;;;1.40;99.90;;;;;;5052055;28;20285;-77
2021/12/12 01:31:32;;;;;;;;;;;1.40;99.90;;;;;;5052175;28;19983;-77
2021/12/12 01:34:08;;;;;;;;;;;1.40;99.90;;;;;;5051813;28;19909;-77
2021/12/12 01:39:29;;;;;;;;;;;1.40;99.90;;;;;;5043937;28;19909;-77
2021/12/12 01:42:00;;;;;;;;;;;1.40;99.90;;;;;;5052453;28;19913;-76
2021/12/12 01:44:27;;;;;;;;;;;1.40;99.90;;;;;;5051648;28;19909;-77
2021/12/12 01:46:59;;;;;;;;;;;1.30;99.90;;;;;;5051730;28;20480;-76
2021/12/12 01:49:25;;;;;;;;;;;1.20;99.90;;;;;;5051597;28;20285;-77
2021/12/12 01:51:53;;;;;;;;;;;1.30;99.90;;;;;;5048959;28;19959;-77
2021/12/12 01:54:21;;;;;;;;;;;1.20;99.90;;;;;;5047593;28;19916;-77
2021/12/12 01:56:53;;;;;;;;;;;1.20;99.90;;;;;;5051481;28;19998;-77
2021/12/12 01:59:20;;;;;;;;;;;1.20;99.90;;;;;;5051441;28;19915;-77
2021/12/12 02:02:06;;;;;;;;;;;1.10;99.90;;;;;;5051257;28;19920;-77
2021/12/12 02:04:37;;;;;;;;;;;1.10;99.90;;;;;;5050086;28;19909;-77
2021/12/12 02:07:04;;;;;;;;;;;1.10;99.90;;;;;;5040356;28;20354;-76
2021/12/12 02:09:30;;;;;;;;;;;1.10;99.90;;;;;;5047042;28;19909;-77
2021/12/12 02:11:57;;;;;;;;;;;1.10;99.90;;;;;;5042994;28;19948;-76
2021/12/12 02:14:23;;;;;;;;;;;1.20;99.90;;;;;;5043189;28;19915;-77
2021/12/12 02:16:51;;;;;;;;;;;1.10;99.90;;;;;;5050880;28;19908;-77
2021/12/12 02:19:18;;;;;;;;;;;1.10;99.90;;;;;;5050446;28;19952;-77
2021/12/12 02:22:24;;;;;;;;;;;1.10;99.90;;;;;;5050532;28;19913;-76
2021/12/12 02:37:44;;;;;;;;;;;1.10;99.90;;;;;;5050988;28;19948;-77
2021/12/12 02:40:15;;;;;;;;;;;1.10;99.90;;;;;;5051112;28;19990;-77
2021/12/12 02:42:41;;;;;;;;;;;1.00;99.90;;;;;;5049153;28;20484;-77
2021/12/12 02:45:08;;;;;;;;;;;1.00;99.90;;;;;;5045381;28;19909;-77
2021/12/12 02:47:35;;;;;;;;;;;0.90;99.90;;;;;;5050810;28;19909;-77
2021/12/12 02:50:20;;;;;;;;;;;0.80;99.90;;;;;;5050814;28;19913;-77
2021/12/12 02:52:47;;;;;;;;;;;0.80;99.90;;;;;;5045500;28;20385;-77
2021/12/12 02:55:18;;;;;;;;;;;0.70;99.90;;;;;;5050510;28;20066;-77
2021/12/12 02:57:43;;;;;;;;;;;0.70;99.90;;;;;;5050906;28;19909;-76
2021/12/12 03:00:11;;;;;;;;;;;0.80;99.90;;;;;;5050832;28;19909;-77
2021/12/12 03:02:45;;;;;;;;;;;0.80;99.90;;;;;;5050719;28;20369;-77
2021/12/12 03:05:11;;;;;;;;;;;0.60;99.90;;;;;;5044324;28;19909;-77
2021/12/12 03:07:37;;;;;;;;;;;0.50;99.90;;;;;;5050635;28;19948;-77
2021/12/12 03:10:04;;;;;;;;;;;0.40;99.90;;;;;;5050837;28;19955;-77
2021/12/12 03:12:33;;;;;;;;;;;0.30;99.90;;;;;;5050741;28;19909;-77
2021/12/12 03:15:06;;;;;;;;;;;0.30;99.90;;;;;;5052326;28;19939;-77
2021/12/12 03:17:31;;;;;;;;;;;0.10;99.90;;;;;;5048940;28;19956;-77
2021/12/12 03:20:01;;;;;;;;;;;0.00;99.90;;;;;;5052917;28;20416;-77
2021/12/12 03:22:27;;;;;;;;;;;0.00;99.90;;;;;;5054025;28;19913;-76
2021/12/12 03:24:53;;;;;;;;;;;0.00;99.90;;;;;;5050652;28;19962;-76
2021/12/12 03:27:20;;;;;;;;;;;0.00;99.90;;;;;;5054169;28;19927;-76
2021/12/12 03:29:46;;;;;;;;;;;0.00;99.90;;;;;;5054100;28;19913;-76
2021/12/12 03:32:13;;;;;;;;;;;0.00;99.90;;;;;;5047382;28;19924;-76
2021/12/12 03:34:45;;;;;;;;;;;-0.20;99.90;;;;;;5053611;28;19960;-77
2021/12/12 03:37:11;;;;;;;;;;;-0.30;99.90;;;;;;5053391;28;20284;-77
2021/12/12 03:39:39;;;;;;;;;;;-0.30;99.90;;;;;;5053612;28;19913;-76
2021/12/12 03:42:07;;;;;;;;;;;-0.40;99.90;;;;;;5053734;28;19919;-76
2021/12/12 03:44:33;;;;;;;;;;;-0.30;99.90;;;;;;5053576;28;19909;-76
2021/12/12 03:47:02;;;;;;;;;;;-0.30;99.90;;;;;;5053830;28;19959;-76
2021/12/12 03:49:27;;;;;;;;;;;-0.40;99.90;;;;;;5053814;28;20426;-76
2021/12/12 03:51:53;;;;;;;;;;;-0.50;99.90;;;;;;5054012;28;19937;-76
2021/12/12 03:54:19;;;;;;;;;;;-0.60;99.90;;;;;;5053590;28;19909;-77
2021/12/12 03:56:45;;;;;;;;;;;-0.60;99.90;;;;;;5053819;28;20539;-77
2021/12/12 03:59:12;;;;;;;;;;;-0.70;99.90;;;;;;5053568;28;19936;-76
2021/12/12 04:01:43;;;;;;;;;;;-0.80;99.90;;;;;;5053398;28;19913;-76
2021/12/12 04:04:18;;;;;;;;;;;-0.90;99.90;;;;;;5051780;28;19913;-76
2021/12/12 04:06:44;;;;;;;;;;;-0.90;99.90;;;;;;5053374;28;20007;-76
2021/12/12 04:09:11;;;;;;;;;;;-0.90;99.90;;;;;;5053589;28;19909;-76
2021/12/12 04:11:40;;;;;;;;;;;-1.00;99.90;;;;;;5053988;28;19908;-76
2021/12/12 04:14:06;;;;;;;;;;;-1.10;99.90;;;;;;5053142;28;19912;-76
2021/12/12 04:16:37;;;;;;;;;;;-1.10;99.90;;;;;;5053069;28;19909;-76
2021/12/12 04:19:03;;;;;;;;;;;-1.20;99.90;;;;;;5053079;28;19916;-76
2021/12/12 04:21:29;;;;;;;;;;;-1.30;99.90;;;;;;5052611;28;20011;-76
2021/12/12 04:23:55;;;;;;;;;;;-1.40;99.90;;;;;;5048210;28;19952;-76
2021/12/12 04:26:26;;;;;;;;;;;-1.40;99.90;;;;;;5052416;28;19958;-76
2021/12/12 04:28:55;;;;;;;;;;;-1.50;99.90;;;;;;5050514;28;20332;-76
2021/12/12 04:31:20;;;;;;;;;;;-1.40;99.90;;;;;;5052763;28;19908;-76
2021/12/12 04:33:46;;;;;;;;;;;-1.40;99.90;;;;;;5052661;28;20004;-76
2021/12/12 04:36:11;;;;;;;;;;;-1.50;99.90;;;;;;5052862;28;19915;-76
2021/12/12 04:38:37;;;;;;;;;;;-1.60;99.90;;;;;;5052288;28;19916;-76
2021/12/12 04:41:02;;;;;;;;;;;-1.70;99.90;;;;;;5048702;28;19935;-76
2021/12/12 04:43:28;;;;;;;;;;;-1.70;99.90;;;;;;5052569;28;20000;-76
2021/12/12 04:46:07;;;;;;;;;;;-1.60;99.90;;;;;;5052942;28;20066;-76
2021/12/12 04:51:41;;;;;;;;;;;-1.50;99.90;;;;;;5042484;28;19940;-76
2021/12/12 04:54:15;;;;;;;;;;;-1.40;99.90;;;;;;5042551;28;19909;-76
2021/12/12 04:56:50;;;;;;;;;;;-1.30;99.90;;;;;;5051308;28;19963;-76
2021/12/12 04:59:15;;;;;;;;;;;-1.30;99.90;;;;;;5052450;28;19913;-76
2021/12/12 05:02:10;;;;;;;;;;;-1.30;99.90;;;;;;5051057;28;19924;-76
2021/12/12 05:04:52;;;;;;;;;;;-1.40;99.90;;;;;;5047268;28;19913;-76
2021/12/12 05:07:24;;;;;;;;;;;-1.50;99.90;;;;;;5047740;28;19971;-76
2021/12/12 05:09:51;;;;;;;;;;;-1.50;99.90;;;;;;5052628;28;19958;-76
2021/12/12 05:12:20;;;;;;;;;;;-1.50;99.90;;;;;;5052273;28;19909;-76
2021/12/12 05:14:51;;;;;;;;;;;-1.60;99.90;;;;;;5052013;28;19956;-76
2021/12/12 05:17:34;;;;;;;;;;;-1.60;99.90;;;;;;5052268;28;19909;-76
2021/12/12 05:20:01;;;;;;;;;;;-1.70;99.90;;;;;;5052056;28;19936;-75
2021/12/12 05:22:30;;;;;;;;;;;-1.80;99.90;;;;;;5050282;28;19913;-76
2021/12/12 05:24:58;;;;;;;;;;;-1.90;99.90;;;;;;5051543;28;20384;-76
2021/12/12 05:27:24;;;;;;;;;;;-1.80;99.90;;;;;;5051851;28;20326;-76
2021/12/12 05:29:55;;;;;;;;;;;-1.70;99.90;;;;;;5051962;28;19951;-76
2021/12/12 05:32:21;;;;;;;;;;;-1.70;99.90;;;;;;5049752;28;20361;-76
2021/12/12 05:34:49;;;;;;;;;;;-1.70;99.90;;;;;;5051446;28;19909;-76
2021/12/12 05:37:15;;;;;;;;;;;-1.70;99.90;;;;;;5051665;28;19935;-76
2021/12/12 05:39:41;;;;;;;;;;;-1.70;99.90;;;;;;5051198;28;20348;-76
2021/12/12 05:42:07;;;;;;;;;;;-2.00;99.90;;;;;;5051554;28;19948;-76
2021/12/12 05:44:33;;;;;;;;;;;-2.10;99.90;;;;;;5051467;28;20358;-76
2021/12/12 05:47:00;;;;;;;;;;;-2.10;99.90;;;;;;5051534;28;19948;-76
2021/12/12 05:49:25;;;;;;;;;;;-2.00;99.90;;;;;;5049069;28;20317;-76
2021/12/12 05:51:51;;;;;;;;;;;-2.00;99.90;;;;;;5051294;28;19940;-76
2021/12/12 05:54:17;;;;;;;;;;;-2.00;99.90;;;;;;5051482;28;20014;-76
2021/12/12 05:56:43;;;;;;;;;;;-2.00;99.90;;;;;;5051828;28;20007;-76
2021/12/12 05:59:10;;;;;;;;;;;-2.20;99.90;;;;;;5051537;28;20385;-76
2021/12/12 06:01:35;;;;;;;;;;;-2.30;99.90;;;;;;5051349;28;19913;-76
2021/12/12 06:04:02;;;;;;;;;;;-2.20;99.90;;;;;;5051100;28;20392;-76
2021/12/12 06:06:30;;;;;;;;;;;-2.30;99.90;;;;;;5051465;28;19909;-76
2021/12/12 06:08:56;;;;;;;;;;;-2.40;99.90;;;;;;5051361;28;19916;-76
2021/12/12 06:11:23;;;;;;;;;;;-2.50;99.90;;;;;;5051268;28;19913;-76
2021/12/12 06:13:49;;;;;;;;;;;-2.50;99.90;;;;;;5051472;28;20277;-76
2021/12/12 06:16:18;;;;;;;;;;;-2.30;99.90;;;;;;5051086;28;19909;-76
2021/12/12 06:18:45;;;;;;;;;;;-2.40;99.90;;;;;;5049945;28;19909;-76
2021/12/12 06:21:11;;;;;;;;;;;-2.40;99.90;;;;;;5047549;28;19962;-76
2021/12/12 06:23:37;;;;;;;;;;;-2.40;99.90;;;;;;5050659;28;19909;-76
2021/12/12 06:26:02;;;;;;;;;;;-2.50;99.90;;;;;;5051015;28;20384;-76
2021/12/12 06:28:33;;;;;;;;;;;-2.60;99.90;;;;;;5051054;28;19974;-76
2021/12/12 06:30:59;;;;;;;;;;;-2.70;99.90;;;;;;5051047;28;19919;-76
2021/12/12 06:33:25;;;;;;;;;;;-2.50;99.90;;;;;;5050966;28;20348;-76
2021/12/12 06:35:50;;;;;;;;;;;-2.50;99.90;;;;;;5051154;28;19919;-76
2021/12/12 06:38:17;;;;;;;;;;;-2.40;99.90;;;;;;5051072;28;19909;-76
2021/12/12 06:40:42;;;;;;;;;;;-2.50;99.90;;;;;;5050989;28;19909;-76
2021/12/12 06:43:10;;;;;;;;;;;-2.50;99.90;;;;;;5050824;28;19917;-76
2021/12/12 06:45:35;;;;;;;;;;;-2.50;99.90;;;;;;5050728;28;20042;-76
2021/12/12 06:48:05;;;;;;;;;;;-2.70;99.90;;;;;;5050882;28;19995;-76
2021/12/12 06:50:30;;;;;;;;;;;-2.80;99.90;;;;;;5053961;28;19909;-76
2021/12/12 06:52:56;;;;;;;;;;;-2.90;99.90;;;;;;5052380;28;19916;-76
2021/12/12 06:55:22;;;;;;;;;;;-3.00;99.90;;;;;;5054655;28;20127;-76
2021/12/12 06:57:48;;;;;;;;;;;-3.00;99.90;;;;;;5055309;28;20002;-76
2021/12/12 07:00:16;;;;;;;;;;;-3.00;99.90;;;;;;5054600;28;19916;-76
2021/12/12 07:02:42;;;;;;;;;;;-3.00;99.90;;;;;;5053215;28;19936;-76
2021/12/12 07:05:10;;;;;;;;;;;-3.10;99.90;;;;;;5054515;28;19916;-76
2021/12/12 07:07:36;;;;;;;;;;;-2.90;99.90;;;;;;5045454;28;19916;-76
2021/12/12 07:10:03;;;;;;;;;;;-3.00;99.90;;;;;;5054206;28;20007;-75
2021/12/12 07:12:28;;;;;;;;;;;-2.80;99.90;;;;;;5054511;28;19927;-76
2021/12/12 07:14:54;;;;;;;;;;;-2.50;99.90;;;;;;5054277;28;20003;-76
2021/12/12 07:17:20;;;;;;;;;;;-2.60;99.90;;;;;;5054741;28;20373;-76
2021/12/12 07:19:47;;;;;;;;;;;-2.70;99.90;;;;;;5054699;28;19916;-76
2021/12/12 07:22:14;;;;;;;;;;;-2.60;99.90;;;;;;5054346;28;20388;-76
2021/12/12 07:24:42;;;;;;;;;;;-2.50;99.90;;;;;;5054342;28;20218;-76
2021/12/12 07:27:08;;;;;;;;;;;-2.40;99.90;;;;;;5054169;28;19999;-76
2021/12/12 07:29:34;;;;;;;;;;;-2.40;99.90;;;;;;5054227;28;20009;-76
2021/12/12 07:32:00;;;;;;;;;;;-2.30;99.90;;;;;;5054285;28;20103;-76
2021/12/12 07:34:25;;;;;;;;;;;-2.20;99.90;;;;;;5054279;28;20293;-75
2021/12/12 07:37:01;;;;;;;;;;;-2.20;99.90;;;;;;5054448;28;19909;-75
2021/12/12 07:39:27;;;;;;;;;;;-2.30;99.90;;;;;;5042303;28;19913;-75
2021/12/12 07:41:54;;;;;;;;;;;-2.20;99.90;;;;;;5054213;28;19919;-75
2021/12/12 07:44:21;;;;;;;;;;;-2.20;99.90;;;;;;5053965;28;19909;-77
2021/12/12 07:46:47;;;;;;;;;;;-2.20;99.90;;;;;;5054417;28;19916;-77
2021/12/12 07:49:13;;;;;;;;;;;-2.00;99.90;;;;;;5054245;28;19913;-77
2021/12/12 07:51:40;;;;;;;;;;;-1.80;99.90;;;;;;5054357;28;19916;-77
2021/12/12 07:54:06;;;;;;;;;;;-1.90;99.90;;;;;;5054044;28;19963;-76
2021/12/12 07:56:33;;;;;;;;;;;-1.90;99.90;;;;;;5053685;28;20345;-75
2021/12/12 07:58:59;;;;;;;;;;;-1.80;99.90;;;;;;5052879;28;20011;-75
2021/12/12 08:01:26;;;;;;;;;;;-1.60;99.90;;;;;;5052362;28;19913;-75
2021/12/12 08:03:53;;;;;;;;;;;-1.40;99.90;;;;;;5053522;28;19909;-75
2021/12/12 08:06:20;;;;;;;;;;;-1.30;99.90;;;;;;5053515;28;19959;-75
2021/12/12 08:08:46;;;;;;;;;;;-1.30;99.90;;;;;;5047166;28;19909;-76
2021/12/12 08:11:15;;;;;;;;;;;-1.10;99.90;;;;;;5045448;28;19996;-77
2021/12/12 08:13:40;;;;;;;;;;;-0.60;99.90;;;;;;5053201;28;20319;-77
2021/12/12 08:16:08;;;;;;;;;;;-0.30;99.90;;;;;;5046828;28;19909;-77
2021/12/12 08:18:34;;;;;;;;;;;0.00;99.90;;;;;;5053693;28;19954;-77
2021/12/12 08:21:00;;;;;;;;;;;0.30;99.90;;;;;;5053270;28;19995;-76
2021/12/12 08:23:26;;;;;;;;;;;0.60;99.90;;;;;;5052921;28;20520;-76
2021/12/12 08:25:52;;;;;;;;;;;0.70;99.90;;;;;;5052348;28;20246;-76
2021/12/12 08:28:18;;;;;;;;;;;0.90;99.90;;;;;;5052898;28;20015;-76
2021/12/12 08:30:44;;;;;;;;;;;0.90;99.90;;;;;;5053176;28;19916;-75
2021/12/12 08:33:10;;;;;;;;;;;0.90;99.90;;;;;;5052874;28;19909;-76
2021/12/12 08:35:36;;;;;;;;;;;0.90;99.90;;;;;;5052211;28;19924;-76
2021/12/12 08:38:04;;;;;;;;;;;0.80;99.90;;;;;;5051703;28;20373;-77
2021/12/12 08:40:32;;;;;;;;;;;0.60;99.90;;;;;;5051644;28;19913;-76
2021/12/12 08:42:57;;;;;;;;;;;0.60;99.90;;;;;;5049755;28;19919;-76
2021/12/12 08:45:28;;;;;;;;;;;0.60;99.90;;;;;;5049993;28;20007;-76
2021/12/12 08:47:54;;;;;;;;;;;0.70;99.90;;;;;;5051924;28;19952;-77
2021/12/12 08:50:23;;;;;;;;;;;0.70;99.90;;;;;;5052613;28;19913;-76
2021/12/12 08:52:49;;;;;;;;;;;0.70;99.90;;;;;;5052001;28;19938;-77
2021/12/12 08:55:23;;;;;;;;;;;0.70;99.90;;;;;;5052399;28;19955;-77
2021/12/12 08:57:58;;;;;;;;;;;0.60;99.90;;;;;;5052685;28;20285;-77
2021/12/12 09:00:25;;;;;;;;;;;0.70;99.90;;;;;;5046875;28;19909;-77
2021/12/12 09:02:52;;;;;;;;;;;0.70;99.90;;;;;;5052867;28;19966;-76
2021/12/12 09:05:20;;;;;;;;;;;1.00;99.90;;;;;;5052131;28;19995;-77
2021/12/12 09:07:47;;;;;;;;;;;1.10;99.90;;;;;;5049675;28;19996;-77
2021/12/12 09:10:21;;;;;;;;;;;1.20;99.90;;;;;;5052469;28;19935;-77
2021/12/12 09:12:54;;;;;;;;;;;1.30;99.90;;;;;;5052517;28;19909;-77
2021/12/12 09:15:26;;;;;;;;;;;1.50;99.90;;;;;;5051700;28;20413;-77
2021/12/12 09:17:59;;;;;;;;;;;1.40;99.90;;;;;;5046447;28;19912;-77
2021/12/12 09:20:33;;;;;;;;;;;1.50;99.90;;;;;;5049343;28;20376;-77
2021/12/12 09:23:06;;;;;;;;;;;1.70;99.90;;;;;;5051950;28;19916;-77
2021/12/12 09:25:37;;;;;;;;;;;1.90;99.90;;;;;;5052027;28;19909;-77
2021/12/12 09:28:12;;;;;;;;;;;2.60;99.90;;;;;;5051954;28;19924;-77
2021/12/12 09:30:37;;;;;;;;;;;3.10;99.90;;;;;;5032092;28;20008;-77
2021/12/12 09:33:18;;;;;;;;;;;3.10;99.90;;;;;;5051179;28;20002;-77
2021/12/12 09:36:02;;;;;;;;;;;3.00;99.90;;;;;;5051629;28;19920;-77
2021/12/12 09:38:36;;;;;;;;;;;2.50;99.90;;;;;;5051606;28;19952;-77
2021/12/12 09:41:08;;;;;;;;;;;2.50;99.90;;;;;;5051734;28;19916;-77
2021/12/12 09:43:52;;;;;;;;;;;2.40;99.90;;;;;;5051499;28;19913;-77
2021/12/12 09:46:27;;;;;;;;;;;2.50;99.90;;;;;;5046505;28;20011;-77
2021/12/12 09:52:18;;;;;;;;;;;3.10;99.90;;;;;;5051535;28;20427;-77
2021/12/12 09:54:49;;;;;;;;;;;3.30;99.90;;;;;;5051476;28;19915;-77
2021/12/12 09:57:22;;;;;;;;;;;3.60;99.90;;;;;;5050342;28;19909;-77
2021/12/12 10:00:06;;;;;;;;;;;3.70;99.90;;;;;;5050496;28;20353;-77
2021/12/12 10:02:35;;;;;;;;;;;3.70;99.90;;;;;;5048928;28;19920;-77
2021/12/12 10:05:06;;;;;;;;;;;3.90;99.90;;;;;;5045687;28;19974;-77
2021/12/12 10:07:41;;;;;;;;;;;4.00;99.90;;;;;;5052658;28;20391;-77
2021/12/12 10:10:11;;;;;;;;;;;3.90;99.90;;;;;;5051109;28;19920;-77
2021/12/12 10:12:40;;;;;;;;;;;3.70;99.90;;;;;;5051316;28;19952;-77
2021/12/12 10:15:09;;;;;;;;;;;3.40;99.90;;;;;;5051057;28;19909;-75
2021/12/12 10:17:37;;;;;;;;;;;3.60;99.90;;;;;;5051028;28;19909;-75
2021/12/12 10:20:13;;;;;;;;;;;3.80;99.90;;;;;;5051080;28;19956;-75
2021/12/12 10:22:58;;;;;;;;;;;3.50;99.90;;;;;;5050914;28;19967;-75
2021/12/12 10:25:27;;;;;;;;;;;3.30;99.90;;;;;;5050601;28;19917;-74
2021/12/12 10:27:58;;;;;;;;;;;3.00;99.90;;;;;;5044580;28;19925;-75
2021/12/12 10:30:28;;;;;;;;;;;3.00;99.90;;;;;;5050908;28;19909;-75
2021/12/12 10:33:00;;;;;;;;;;;3.40;99.90;;;;;;5047140;28;20357;-75
2021/12/12 10:35:32;;;;;;;;;;;3.50;99.90;;;;;;5050672;28;19944;-75
2021/12/12 10:38:01;;;;;;;;;;;3.40;99.90;;;;;;5051206;28;19955;-75
2021/12/12 10:40:34;;;;;;;;;;;3.30;99.90;;;;;;5050731;28;19909;-75
2021/12/12 10:43:02;;;;;;;;;;;3.50;99.90;;;;;;5050487;28;19923;-75
2021/12/12 10:45:39;;;;;;;;;;;3.50;99.90;;;;;;5050838;28;20273;-75
2021/12/12 10:48:05;;;;;;;;;;;3.70;99.90;;;;;;5050973;28;19909;-75
2021/12/12 10:50:33;;;;;;;;;;;3.60;99.90;;;;;;5050790;28;20305;-75
2021/12/12 10:53:08;;;;;;;;;;;3.50;99.90;;;;;;5046099;28;19967;-75
2021/12/12 10:55:33;;;;;;;;;;;3.40;99.90;;;;;;5049460;28;19916;-75
2021/12/12 10:58:05;;;;;;;;;;;3.40;99.90;;;;;;5050882;28;19909;-75
2021/12/12 11:00:33;;;;;;;;;;;3.50;99.90;;;;;;5050773;28;19936;-75
2021/12/12 11:03:01;;;;;;;;;;;3.70;99.90;;;;;;5050374;28;19917;-76
2021/12/12 11:05:48;;;;;;;;;;;4.00;99.90;;;;;;5049403;28;19988;-75
2021/12/12 11:08:20;;;;;;;;;;;4.40;99.90;;;;;;5046536;28;20382;-75
2021/12/12 11:10:47;;;;;;;;;;;4.50;99.90;;;;;;5050539;28;19909;-75
2021/12/12 11:13:16;;;;;;;;;;;4.50;99.90;;;;;;5050200;28;19913;-75
2021/12/12 11:15:48;;;;;;;;;;;4.50;99.90;;;;;;5050586;28;20007;-75
2021/12/12 11:18:20;;;;;;;;;;;4.40;99.90;;;;;;5050723;28;19909;-75
2021/12/12 11:20:45;;;;;;;;;;;4.50;99.90;;;;;;5049103;28;19909;-75
2021/12/12 11:23:28;;;;;;;;;;;4.70;99.90;;;;;;5050040;28;19920;-75
2021/12/12 11:26:03;;;;;;;;;;;4.50;99.90;;;;;;5050669;28;19944;-75
2021/12/12 11:28:31;;;;;;;;;;;4.60;99.90;;;;;;5044312;28;20400;-75
2021/12/12 11:31:01;;;;;;;;;;;4.60;99.90;;;;;;5047211;28;20412;-75
2021/12/12 11:33:30;;;;;;;;;;;4.50;99.90;;;;;;5048584;28;20378;-75
2021/12/12 11:35:56;;;;;;;;;;;4.30;99.90;;;;;;5050512;28;19931;-75
2021/12/12 11:38:22;;;;;;;;;;;4.30;99.90;;;;;;5054161;28;20000;-75
2021/12/12 11:40:59;;;;;;;;;;;4.30;99.90;;;;;;5052732;28;19947;-75
2021/12/12 11:43:53;;;;;;;;;;;4.30;99.90;;;;;;5053521;28;19968;-75
2021/12/12 11:46:20;;;;;;;;;;;4.30;99.90;;;;;;5052452;28;19919;-75
2021/12/12 11:49:10;;;;;;;;;;;4.30;99.90;;;;;;5053872;28;19909;-75
2021/12/12 11:51:38;;;;;;;;;;;4.30;99.90;;;;;;5053831;28;19908;-75
2021/12/12 11:54:16;;;;;;;;;;;4.30;99.90;;;;;;5053220;28;19909;-75
2021/12/12 11:56:47;;;;;;;;;;;4.40;99.90;;;;;;5053734;28;19908;-75
2021/12/12 11:59:38;;;;;;;;;;;4.50;99.90;;;;;;5053851;28;19913;-75
2021/12/12 12:02:18;;;;;;;;;;;4.60;99.90;;;;;;5052849;28;19913;-75
2021/12/12 12:04:53;;;;;;;;;;;4.60;99.90;;;;;;5051303;28;19920;-75
2021/12/12 12:07:27;;;;;;;;;;;4.70;99.90;;;;;;5053579;28;19967;-75
2021/12/12 12:10:00;;;;;;;;;;;4.40;99.90;;;;;;5052318;28;19913;-75
2021/12/12 12:12:29;;;;;;;;;;;4.30;99.90;;;;;;5053457;28;19909;-75
2021/12/12 12:15:13;;;;;;;;;;;4.50;99.90;;;;;;5052916;28;19995;-75
2021/12/12 12:17:49;;;;;;;;;;;4.70;99.90;;;;;;5051479;28;20007;-75
2021/12/12 12:20:27;;;;;;;;;;;4.60;99.90;;;;;;5053120;28;19916;-75
2021/12/12 12:22:59;;;;;;;;;;;4.70;99.90;;;;;;5052986;28;20011;-75
2021/12/12 12:25:30;;;;;;;;;;;4.90;99.90;;;;;;5053260;28;19909;-75
2021/12/12 12:28:00;;;;;;;;;;;4.90;99.90;;;;;;5043097;28;19925;-75
2021/12/12 12:30:31;;;;;;;;;;;5.00;99.90;;;;;;5051627;28;19922;-75
2021/12/12 12:33:15;;;;;;;;;;;5.20;99.90;;;;;;5052784;28;19935;-75
2021/12/12 12:35:59;;;;;;;;;;;5.20;99.90;;;;;;5052851;28;19916;-75
2021/12/12 12:38:45;;;;;;;;;;;5.10;99.90;;;;;;5052901;28;19909;-75
2021/12/12 12:41:30;;;;;;;;;;;5.00;99.90;;;;;;5052808;28;19935;-75
2021/12/12 12:44:14;;;;;;;;;;;5.00;99.90;;;;;;5052470;28;20006;-75
2021/12/12 12:46:58;;;;;;;;;;;5.00;99.90;;;;;;5052866;28;19935;-75
2021/12/12 12:49:43;;;;;;;;;;;4.90;99.90;;;;;;5051263;28;20281;-75
2021/12/12 12:52:21;;;;;;;;;;;4.80;99.90;;;;;;5045832;28;20329;-75
2021/12/12 12:54:59;;;;;;;;;;;4.80;99.90;;;;;;5052345;28;20304;-75
2021/12/12 12:57:28;;;;;;;;;;;4.70;99.90;;;;;;5052641;28;19909;-75
2021/12/12 13:00:06;;;;;;;;;;;4.70;99.90;;;;;;5052644;28;19915;-76
2021/12/12 13:02:58;;;;;;;;;;;4.70;99.90;;;;;;5051311;28;20285;-75
2021/12/12 13:05:23;;;;;;;;;;;4.60;99.90;;;;;;5044048;28;19917;-75
2021/12/12 13:07:58;;;;;;;;;;;4.50;99.90;;;;;;5049222;28;20332;-75
2021/12/12 13:10:25;;;;;;;;;;;4.50;99.90;;;;;;5045730;28;19913;-75
2021/12/12 13:13:03;;;;;;;;;;;4.70;99.90;;;;;;5052337;28;19916;-75
2021/12/12 13:15:32;;;;;;;;;;;4.60;99.90;;;;;;5052727;28;19916;-75
2021/12/12 13:18:16;;;;;;;;;;;4.60;99.90;;;;;;5052258;28;19909;-75
2021/12/12 13:20:44;;;;;;;;;;;4.60;99.90;;;;;;5051076;28;19909;-75
2021/12/12 13:23:14;;;;;;;;;;;4.50;99.90;;;;;;5051762;28;19996;-75
2021/12/12 13:26:01;;;;;;;;;;;4.60;99.90;;;;;;5052056;28;20397;-76
2021/12/12 13:28:51;;;;;;;;;;;4.70;99.90;;;;;;5051969;28;19985;-75
2021/12/12 13:31:22;;;;;;;;;;;4.60;99.90;;;;;;5046252;28;19909;-75
2021/12/12 13:33:57;;;;;;;;;;;4.60;99.90;;;;;;5049326;28;19909;-76
2021/12/12 13:36:41;;;;;;;;;;;4.60;99.90;;;;;;5051855;28;19913;-75
2021/12/12 13:39:33;;;;;;;;;;;4.50;99.90;;;;;;5047010;28;19971;-75
2021/12/12 13:42:13;;;;;;;;;;;4.50;99.90;;;;;;5046479;28;19913;-75
2021/12/12 13:44:39;;;;;;;;;;;4.60;99.90;;;;;;5051459;28;19952;-75
2021/12/12 13:47:17;;;;;;;;;;;4.60;99.90;;;;;;5052018;28;20061;-75
2021/12/12 13:49:52;;;;;;;;;;;4.60;99.90;;;;;;5052645;28;19916;-75
2021/12/12 13:52:25;;;;;;;;;;;4.60;99.90;;;;;;5051504;28;19909;-75
2021/12/12 13:55:12;;;;;;;;;;;4.60;99.90;;;;;;5051733;28;20370;-75
2021/12/12 13:58:03;;;;;;;;;;;4.60;99.90;;;;;;5051490;28;19978;-74
2021/12/12 14:00:31;;;;;;;;;;;4.50;99.90;;;;;;5050609;28;20281;-75
2021/12/12 14:03:02;;;;;;;;;;;4.50;99.90;;;;;;5047379;28;19914;-74
2021/12/12 14:05:29;;;;;;;;;;;4.40;99.90;;;;;;5048715;28;19909;-75
2021/12/12 14:07:59;;;;;;;;;;;4.50;99.90;;;;;;5051099;28;20380;-74
2021/12/12 14:10:25;;;;;;;;;;;4.50;99.90;;;;;;5051186;28;19908;-75
2021/12/12 14:12:52;;;;;;;;;;;4.50;99.90;;;;;;5051070;28;20320;-75
2021/12/12 14:15:23;;;;;;;;;;;4.50;99.90;;;;;;5050934;28;19991;-74
2021/12/12 14:17:53;;;;;;;;;;;4.40;99.90;;;;;;5050914;28;20259;-75
2021/12/12 14:20:22;;;;;;;;;;;4.20;99.90;;;;;;5050954;28;19920;-74
2021/12/12 14:22:48;;;;;;;;;;;4.20;99.90;;;;;;5045854;28;20392;-75
2021/12/12 14:25:14;;;;;;;;;;;4.10;99.90;;;;;;5052088;28;20320;-75
2021/12/12 14:27:42;;;;;;;;;;;4.20;99.90;;;;;;5043410;28;19917;-75
2021/12/12 14:30:10;;;;;;;;;;;4.10;99.90;;;;;;5039229;28;19913;-75
2021/12/12 14:32:38;;;;;;;;;;;4.20;99.90;;;;;;5044478;28;19919;-75
2021/12/12 14:35:03;;;;;;;;;;;4.20;99.90;;;;;;5042152;28;19912;-74
2021/12/12 14:37:33;;;;;;;;;;;4.30;99.90;;;;;;5050876;28;19915;-75
2021/12/12 14:40:01;;;;;;;;;;;4.20;99.90;;;;;;5045177;28;19909;-75
2021/12/12 14:42:28;;;;;;;;;;;4.30;99.90;;;;;;5049368;28;19919;-75
2021/12/12 14:44:55;;;;;;;;;;;4.30;99.90;;;;;;5049924;28;19924;-74
2021/12/12 14:47:22;;;;;;;;;;;4.20;99.90;;;;;;5050876;28;20549;-75
2021/12/12 14:49:54;;;;;;;;;;;4.20;99.90;;;;;;5045157;28;20285;-75
2021/12/12 14:52:21;;;;;;;;;;;4.20;99.90;;;;;;5050561;28;19935;-74
2021/12/12 14:54:50;;;;;;;;;;;4.10;99.90;;;;;;5051118;28;19916;-75
2021/12/12 14:57:17;;;;;;;;;;;4.10;99.90;;;;;;5051346;28;20373;-74
2021/12/12 14:59:44;;;;;;;;;;;4.10;99.90;;;;;;5051637;28;19915;-75
2021/12/12 15:02:09;;;;;;;;;;;4.10;99.90;;;;;;5051226;28;19917;-74
2021/12/12 15:04:36;;;;;;;;;;;4.00;99.90;;;;;;5050064;28;19962;-75